Time;durP1;ratioP1;P1;durP2;ratioP2;P2;SDS_P1;SDS_P2;PMS_P1;PMS_P2;Temp;Humidity;BMP_temperature;BMP_pressure;BME280_temperature;BME280_humidity;BME280_pressure;Samples;Min_cycle;Max_cycle;Signal;HPM_P1;HPM_P2
2023/08/23 00:00:39;;;;;;;3.53;3.22;;;;;;;18.66;69.04;101949.25;5016959;28;20025;-66
2023/08/23 00:03:04;;;;;;;5.80;2.80;;;;;;;18.59;68.66;101947.88;5010617;28;20026;-66
2023/08/23 00:05:29;;;;;;;3.95;2.80;;;;;;;18.58;69.06;101951.50;5013548;28;20474;-66
2023/08/23 00:07:55;;;;;;;3.90;2.63;;;;;;;18.58;68.74;101946.16;5013302;28;20036;-66
2023/08/23 00:10:20;;;;;;;5.32;2.55;;;;;;;18.52;69.03;101957.22;5012905;28;20026;-66
2023/08/23 00:12:45;;;;;;;8.18;3.67;;;;;;;18.31;69.92;101951.22;5011477;28;20508;-66
2023/08/23 00:15:10;;;;;;;3.50;3.20;;;;;;;18.24;70.23;101947.16;5014373;28;20496;-66
2023/08/23 00:17:36;;;;;;;5.90;3.55;;;;;;;17.96;71.26;101945.09;5005834;28;20033;-66
2023/08/23 00:20:01;;;;;;;4.28;3.47;;;;;;;17.77;71.62;101943.41;5021861;28;20448;-64
2023/08/23 00:22:26;;;;;;;8.02;3.00;;;;;;;17.79;71.55;101943.31;5008566;28;20022;-65
2023/08/23 00:24:52;;;;;;;7.82;3.65;;;;;;;17.83;71.66;101943.06;5017330;28;20025;-64
2023/08/23 00:27:17;;;;;;;6.28;3.33;;;;;;;17.85;71.30;101937.63;5016479;28;20496;-64
2023/08/23 00:29:42;;;;;;;3.55;2.83;;;;;;;17.93;70.92;101942.59;5007561;28;20026;-64
2023/08/23 00:32:07;;;;;;;6.63;3.22;;;;;;;17.98;70.96;101935.19;5008843;28;20075;-65
2023/08/23 00:34:33;;;;;;;5.13;1.75;;;;;;;18.03;70.81;101928.63;5023678;28;20090;-64
2023/08/23 00:36:58;;;;;;;7.40;2.95;;;;;;;17.83;71.00;101935.06;5013139;28;20091;-64
2023/08/23 00:39:24;;;;;;;5.63;3.28;;;;;;;17.80;71.15;101932.53;5009337;28;20037;-64
2023/08/23 00:41:49;;;;;;;7.47;4.13;;;;;;;17.89;70.58;101928.50;5001189;28;20030;-64
2023/08/23 00:44:14;;;;;;;5.55;3.22;;;;;;;17.85;70.80;101924.25;5016428;28;20383;-64
2023/08/23 00:46:40;;;;;;;5.55;3.22;;;;;;;17.78;71.44;101923.72;5014048;28;20154;-64
2023/08/23 00:49:06;;;;;;;4.75;3.08;;;;;;;17.65;71.62;101917.25;5009318;28;20024;-65
2023/08/23 00:51:31;;;;;;;5.10;2.65;;;;;;;17.48;72.06;101918.13;5013888;28;20025;-64
2023/08/23 00:53:57;;;;;;;4.68;2.85;;;;;;;17.57;71.23;101916.78;5019103;28;20032;-64
2023/08/23 00:56:23;;;;;;;7.75;3.05;;;;;;;17.50;72.50;101908.25;5013198;28;20358;-64
2023/08/23 00:58:48;;;;;;;3.88;3.03;;;;;;;17.45;72.12;101912.97;5015763;28;20548;-64
2023/08/23 01:01:13;;;;;;;5.25;3.10;;;;;;;17.36;72.87;101909.91;5016301;28;20496;-64
2023/08/23 01:03:39;;;;;;;4.55;3.03;;;;;;;17.24;72.32;101914.06;5016069;28;20108;-64
2023/08/23 01:06:31;;;;;;;7.00;2.75;;;;;;;17.16;72.16;101913.56;5023767;28;20076;-64
2023/08/23 01:09:17;;;;;;;5.38;2.97;;;;;;;17.02;72.63;101912.47;5001167;28;20041;-66
2023/08/23 01:11:54;;;;;;;3.60;1.88;;;;;;;17.11;72.16;101912.94;5012063;28;20204;-64
2023/08/23 01:14:35;;;;;;;4.50;2.20;;;;;;;17.21;71.68;101907.06;5022942;28;20032;-64
2023/08/23 01:17:01;;;;;;;3.88;2.75;;;;;;;17.16;71.76;101917.13;5005704;28;20034;-65
2023/08/23 01:19:41;;;;;;;4.65;2.40;;;;;;;17.26;71.25;101914.84;5012883;28;20028;-64
2023/08/23 01:22:10;;;;;;;5.70;2.63;;;;;;;17.29;71.20;101920.88;5003817;28;20026;-64
2023/08/23 01:24:36;;;;;;;3.70;2.85;;;;;;;17.34;71.06;101918.84;5007123;28;20512;-65
2023/08/23 01:27:02;;;;;;;3.70;2.28;;;;;;;17.43;70.69;101922.00;5013129;28;20022;-64
2023/08/23 01:29:27;;;;;;;2.88;2.10;;;;;;;17.49;69.50;101917.22;5016287;28;20120;-65
2023/08/23 01:31:56;;;;;;;3.88;2.95;;;;;;;17.51;68.95;101927.81;5005181;28;21371;-65
2023/08/23 01:34:31;;;;;;;3.50;2.47;;;;;;;17.44;69.76;101931.72;5010952;28;20098;-64
2023/08/23 01:36:58;;;;;;;7.97;2.45;;;;;;;17.39;69.63;101920.41;4998764;28;20054;-64
2023/08/23 01:39:25;;;;;;;4.45;2.53;;;;;;;17.41;69.57;101918.53;5012979;28;20536;-64
2023/08/23 01:41:51;;;;;;;3.55;2.50;;;;;;;17.49;69.29;101922.56;5015370;28;20033;-64
2023/08/23 01:44:16;;;;;;;5.28;2.80;;;;;;;17.45;70.26;101918.31;5011069;28;21234;-65
2023/08/23 01:46:42;;;;;;;3.00;2.58;;;;;;;17.45;70.04;101914.78;5007484;28;21378;-64
2023/08/23 01:49:07;;;;;;;3.97;2.67;;;;;;;17.46;69.58;101908.47;5000818;28;20038;-64
2023/08/23 01:51:32;;;;;;;6.20;2.80;;;;;;;17.39;69.85;101909.72;5022696;28;20404;-64
2023/08/23 01:53:58;;;;;;;4.45;2.92;;;;;;;17.19;70.77;101898.25;5010495;28;20102;-64
2023/08/23 01:56:23;;;;;;;4.55;2.85;;;;;;;17.18;70.79;101914.38;5014925;28;20045;-64
2023/08/23 01:58:48;;;;;;;3.63;2.70;;;;;;;17.09;71.52;101908.53;5016351;28;20476;-64
2023/08/23 02:01:13;;;;;;;3.40;3.10;;;;;;;17.02;71.53;101907.16;5006248;28;20035;-65
2023/08/23 02:03:39;;;;;;;3.80;3.50;;;;;;;16.93;72.17;101906.75;5014338;28;20476;-64
2023/08/23 02:06:04;;;;;;;3.40;3.10;;;;;;;16.97;71.42;101905.63;5015088;28;20038;-65
2023/08/23 02:08:29;;;;;;;4.07;3.30;;;;;;;17.03;71.20;101913.34;5010618;28;20552;-64
2023/08/23 02:10:54;;;;;;;4.50;3.10;;;;;;;17.04;71.95;101912.41;5014042;28;20495;-65
2023/08/23 02:13:20;;;;;;;6.55;3.33;;;;;;;16.85;71.91;101907.09;5011973;28;20041;-64
2023/08/23 02:15:45;;;;;;;8.85;3.55;;;;;;;16.54;73.11;101908.56;5011215;28;20088;-65
2023/08/23 02:18:10;;;;;;;4.68;3.00;;;;;;;16.54;72.39;101905.03;5008332;28;20022;-65
2023/08/23 02:20:36;;;;;;;5.13;3.20;;;;;;;16.61;72.85;101901.13;5005518;28;20083;-66
2023/08/23 02:23:01;;;;;;;5.70;3.50;;;;;;;16.73;71.64;101905.88;5011363;28;20384;-66
2023/08/23 02:25:26;;;;;;;3.85;3.22;;;;;;;16.78;71.98;101903.00;5007291;28;20069;-66
2023/08/23 02:27:51;;;;;;;3.22;2.92;;;;;;;16.64;72.20;101900.97;5007222;28;20025;-66
2023/08/23 02:30:17;;;;;;;3.85;2.67;;;;;;;16.55;72.51;101901.41;5009708;28;20031;-66
2023/08/23 02:32:42;;;;;;;3.10;2.90;;;;;;;16.48;72.94;101902.66;5014310;28;20029;-66
2023/08/23 02:35:07;;;;;;;6.47;3.75;;;;;;;16.41;73.45;101904.72;5016906;28;21249;-66
2023/08/23 02:37:33;;;;;;;4.88;3.58;;;;;;;16.23;74.03;101900.28;5006060;28;20025;-66
2023/08/23 02:39:58;;;;;;;4.72;3.05;;;;;;;16.12;73.86;101902.56;5014810;28;20337;-66
2023/08/23 02:42:23;;;;;;;3.55;2.55;;;;;;;16.23;73.65;101906.50;5015153;28;20025;-66
2023/08/23 02:44:48;;;;;;;2.65;2.22;;;;;;;16.28;73.50;101904.47;5021031;28;20112;-66
2023/08/23 02:47:14;;;;;;;2.60;2.20;;;;;;;16.22;73.59;101906.53;5011215;28;20401;-66
2023/08/23 02:49:39;;;;;;;3.47;2.40;;;;;;;15.99;74.85;101900.50;5021854;28;20115;-66
2023/08/23 02:52:04;;;;;;;3.25;2.80;;;;;;;15.97;75.02;101902.34;5007756;28;20040;-66
2023/08/23 02:54:30;;;;;;;2.50;1.83;;;;;;;16.02;74.31;101908.34;5022629;28;20447;-66
2023/08/23 02:56:55;;;;;;;2.67;2.13;;;;;;;16.17;74.46;101906.75;5027758;28;20025;-66
2023/08/23 02:59:20;;;;;;;2.58;2.30;;;;;;;16.04;74.39;101893.16;5019159;28;20117;-66
2023/08/23 03:01:46;;;;;;;4.93;2.97;;;;;;;15.81;74.74;101888.00;5016452;28;20025;-66
2023/08/23 03:04:11;;;;;;;4.03;2.85;;;;;;;15.63;75.71;101884.31;5015649;28;20108;-66
2023/08/23 03:06:36;;;;;;;3.55;2.60;;;;;;;15.58;75.37;101886.31;5024479;28;20058;-66
2023/08/23 03:09:01;;;;;;;3.10;2.30;;;;;;;15.71;75.33;101892.00;5020810;28;20045;-66
2023/08/23 03:11:27;;;;;;;3.05;2.25;;;;;;;15.92;73.93;101885.69;5023392;28;20405;-65
2023/08/23 03:13:52;;;;;;;4.20;2.58;;;;;;;16.10;72.52;101881.31;5015036;28;20026;-66
2023/08/23 03:16:18;;;;;;;2.83;2.38;;;;;;;16.19;71.46;101886.22;5012301;28;20021;-66
2023/08/23 03:18:43;;;;;;;3.60;2.58;;;;;;;16.24;71.29;101889.53;5011750;28;20374;-66
2023/08/23 03:21:09;;;;;;;3.53;2.65;;;;;;;16.28;71.24;101882.25;5028467;28;20022;-66
2023/08/23 03:23:34;;;;;;;5.55;2.58;;;;;;;16.26;70.81;101884.97;5015313;28;20523;-66
2023/08/23 03:25:59;;;;;;;3.13;2.50;;;;;;;16.29;71.20;101887.53;5020327;28;20029;-66
2023/08/23 03:28:25;;;;;;;3.50;2.70;;;;;;;16.26;72.34;101884.97;5011028;28;20029;-66
2023/08/23 03:30:50;;;;;;;4.35;2.20;;;;;;;16.16;72.13;101886.34;5009096;28;20031;-64
2023/08/23 03:33:16;;;;;;;4.18;2.50;;;;;;;16.20;73.67;101879.94;5013290;28;20112;-65
2023/08/23 03:35:41;;;;;;;3.90;2.28;;;;;;;16.22;72.80;101880.72;5000919;28;20482;-64
2023/08/23 03:38:06;;;;;;;3.50;2.78;;;;;;;16.23;71.30;101885.16;5010709;28;20030;-64
2023/08/23 03:40:36;;;;;;;3.50;2.45;;;;;;;16.19;71.56;101888.03;5012895;28;20034;-64
2023/08/23 03:43:02;;;;;;;3.95;2.80;;;;;;;15.97;72.87;101886.34;5016202;28;20374;-64
2023/08/23 03:45:27;;;;;;;2.58;2.10;;;;;;;15.80;74.29;101891.56;5012344;28;20088;-64
2023/08/23 03:47:52;;;;;;;2.75;2.53;;;;;;;15.69;74.45;101886.72;5011788;28;20038;-64
2023/08/23 03:50:17;;;;;;;4.78;2.92;;;;;;;15.60;75.17;101879.13;5010957;28;20648;-64
2023/08/23 03:52:43;;;;;;;3.78;2.30;;;;;;;15.51;74.67;101887.53;5012851;28;20022;-64
2023/08/23 03:55:08;;;;;;;2.97;2.67;;;;;;;15.71;75.26;101882.19;5017213;28;20120;-65
2023/08/23 03:57:33;;;;;;;3.80;2.38;;;;;;;15.90;75.35;101890.25;5013851;28;20441;-66
2023/08/23 03:59:59;;;;;;;4.22;2.38;;;;;;;15.95;73.66;101887.38;5010073;28;20030;-65
2023/08/23 04:02:24;;;;;;;8.80;2.50;;;;;;;15.99;72.89;101888.94;5005928;28;20037;-65
2023/08/23 04:04:49;;;;;;;3.03;2.00;;;;;;;16.06;74.05;101895.72;5012032;28;20032;-64
2023/08/23 04:07:15;;;;;;;2.20;2.10;;;;;;;16.08;74.32;101892.03;5024048;28;20061;-64
2023/08/23 04:09:41;;;;;;;4.45;2.00;;;;;;;16.12;74.48;101886.56;5020605;28;20339;-64
2023/08/23 04:12:07;;;;;;;2.30;2.10;;;;;;;16.10;72.90;101892.00;5014601;28;20369;-64
2023/08/23 04:14:32;;;;;;;1.80;1.70;;;;;;;16.02;72.73;101894.13;5008934;28;20073;-64
2023/08/23 04:16:59;;;;;;;2.65;1.90;;;;;;;16.07;72.99;101892.13;5013043;28;20053;-64
2023/08/23 04:19:24;;;;;;;2.33;2.13;;;;;;;16.12;72.23;101902.56;5013909;28;20497;-64
2023/08/23 04:21:50;;;;;;;3.60;2.33;;;;;;;16.14;71.79;101888.25;5010009;28;20053;-64
2023/08/23 04:24:15;;;;;;;3.00;2.20;;;;;;;16.12;72.12;101900.78;5014967;28;20036;-64
2023/08/23 04:26:41;;;;;;;4.50;2.70;;;;;;;16.02;72.17;101892.34;5011549;28;20052;-64
2023/08/23 04:29:06;;;;;;;4.15;2.90;;;;;;;16.09;73.31;101895.59;5017436;28;20492;-64
2023/08/23 04:31:31;;;;;;;3.33;2.30;;;;;;;16.06;73.37;101893.94;5010360;28;20048;-64
2023/08/23 04:33:56;;;;;;;3.80;2.53;;;;;;;16.02;74.24;101895.00;5017267;28;20040;-64
2023/08/23 04:36:22;;;;;;;2.60;2.40;;;;;;;16.05;73.94;101894.00;5014116;28;20032;-64
2023/08/23 04:38:47;;;;;;;5.65;2.28;;;;;;;16.02;72.65;101897.66;5014107;28;20055;-64
2023/08/23 04:41:12;;;;;;;3.05;2.78;;;;;;;15.86;73.50;101896.66;5023191;28;20036;-66
2023/08/23 04:43:38;;;;;;;4.20;3.17;;;;;;;15.61;74.30;101899.50;5011331;28;20033;-66
2023/08/23 04:46:05;;;;;;;5.13;3.00;;;;;;;15.38;75.04;101900.50;5024630;28;20038;-66
2023/08/23 04:48:31;;;;;;;5.30;3.35;;;;;;;15.35;75.48;101892.66;5015902;28;20065;-66
2023/08/23 04:50:57;;;;;;;3.15;2.50;;;;;;;15.44;74.66;101900.25;5011993;28;20370;-66
2023/08/23 04:53:24;;;;;;;3.38;2.67;;;;;;;15.51;74.70;101900.84;5013721;28;20032;-66
2023/08/23 04:55:49;;;;;;;6.18;2.45;;;;;;;15.59;74.42;101890.72;5013441;28;20128;-66
2023/08/23 04:58:16;;;;;;;2.97;2.30;;;;;;;15.68;73.81;101892.16;5007221;28;20109;-66
2023/08/23 05:00:43;;;;;;;3.83;2.63;;;;;;;15.74;74.21;101897.19;5008946;28;20024;-66
2023/08/23 05:03:08;;;;;;;2.80;2.60;;;;;;;15.80;73.92;101888.91;5010206;28;20022;-66
2023/08/23 05:05:34;;;;;;;3.20;2.53;;;;;;;15.73;74.48;101891.00;5012022;28;20041;-66
2023/08/23 05:08:00;;;;;;;3.45;2.60;;;;;;;15.71;74.06;101890.19;5016124;28;20025;-66
2023/08/23 05:10:25;;;;;;;2.97;2.45;;;;;;;15.77;74.93;101884.59;5011419;28;20030;-66
2023/08/23 05:12:51;;;;;;;3.13;2.60;;;;;;;15.95;73.95;101890.91;5015449;28;20025;-66
2023/08/23 05:15:17;;;;;;;3.15;2.80;;;;;;;16.07;73.88;101886.78;5008026;28;20025;-66
2023/08/23 05:17:42;;;;;;;3.13;2.58;;;;;;;16.24;73.06;101881.53;5021239;28;20196;-65
2023/08/23 05:20:08;;;;;;;3.63;3.20;;;;;;;16.23;74.02;101879.81;5018387;28;20036;-65
2023/08/23 05:22:33;;;;;;;3.30;2.92;;;;;;;16.17;75.31;101885.41;5018671;28;20104;-66
2023/08/23 05:24:59;;;;;;;3.25;2.92;;;;;;;16.18;75.61;101884.50;5010614;28;20556;-66
2023/08/23 05:27:24;;;;;;;4.65;3.30;;;;;;;16.30;74.55;101883.91;5010983;28;20495;-66
2023/08/23 05:29:50;;;;;;;3.00;2.70;;;;;;;16.53;74.68;101882.81;5016130;28;20085;-66
2023/08/23 05:32:15;;;;;;;3.80;2.60;;;;;;;16.62;73.83;101881.50;5011462;28;20114;-66
2023/08/23 05:34:41;;;;;;;4.95;3.00;;;;;;;16.70;74.23;101891.81;5006857;28;20189;-66
2023/08/23 05:37:06;;;;;;;3.55;2.88;;;;;;;16.72;74.24;101893.47;5018439;28;20040;-66
2023/08/23 05:39:32;;;;;;;5.93;2.90;;;;;;;16.73;73.96;101897.00;5019134;28;20025;-66
2023/08/23 05:41:57;;;;;;;4.45;2.55;;;;;;;16.80;74.11;101891.31;5012787;28;20113;-66
2023/08/23 05:44:22;;;;;;;3.85;2.90;;;;;;;16.93;76.38;101890.72;5009660;28;20033;-66
2023/08/23 05:46:47;;;;;;;3.97;2.88;;;;;;;16.98;73.33;101894.00;5010556;28;20046;-66
2023/08/23 05:49:13;;;;;;;5.85;3.45;;;;;;;16.98;73.19;101891.34;5013810;28;20547;-66
2023/08/23 05:51:38;;;;;;;4.60;3.00;;;;;;;16.99;73.30;101895.75;5018684;28;20047;-65
2023/08/23 05:54:03;;;;;;;3.92;3.28;;;;;;;16.97;73.41;101898.50;5015190;28;20073;-64
2023/08/23 05:56:29;;;;;;;4.38;3.65;;;;;;;17.02;73.76;101903.56;5010454;28;20037;-64
2023/08/23 05:58:54;;;;;;;4.00;3.42;;;;;;;17.05;73.40;101904.28;5014099;28;20021;-64
2023/08/23 06:01:19;;;;;;;4.50;3.10;;;;;;;17.19;73.06;101897.38;4992575;28;20037;-66
2023/08/23 06:03:44;;;;;;;5.10;3.88;;;;;;;17.25;73.75;101897.06;5016996;28;20025;-66
2023/08/23 06:06:10;;;;;;;7.93;4.88;;;;;;;17.02;74.31;101901.78;5017568;28;20042;-66
2023/08/23 06:08:35;;;;;;;9.43;6.60;;;;;;;16.94;76.02;101909.31;5014608;28;20036;-66
2023/08/23 06:11:00;;;;;;;7.97;5.68;;;;;;;17.04;74.92;101915.06;5018336;28;20025;-66
2023/08/23 06:13:27;;;;;;;8.15;7.35;;;;;;;17.24;78.23;101911.38;5015412;28;20096;-65
2023/08/23 06:15:52;;;;;;;9.57;7.65;;;;;;;17.42;76.64;101904.22;5008266;28;20504;-66
2023/08/23 06:18:18;;;;;;;11.32;7.00;;;;;;;17.46;75.06;101911.16;5009814;28;20030;-66
2023/08/23 06:20:45;;;;;;;9.68;6.60;;;;;;;17.64;75.40;101907.53;5011421;28;20030;-66
2023/08/23 06:23:10;;;;;;;9.70;8.60;;;;;;;17.59;76.87;101912.25;5000321;28;20455;-66
2023/08/23 06:25:35;;;;;;;14.45;10.98;;;;;;;17.63;76.42;101915.63;5013898;28;20026;-66
2023/08/23 06:28:01;;;;;;;12.98;10.98;;;;;;;17.62;77.49;101917.41;4999903;28;20034;-66
2023/08/23 06:30:26;;;;;;;10.25;8.77;;;;;;;17.73;79.39;101915.09;5008631;28;20022;-66
2023/08/23 06:32:51;;;;;;;9.98;7.43;;;;;;;17.76;77.55;101920.25;5012859;28;20037;-66
2023/08/23 06:35:18;;;;;;;10.70;8.45;;;;;;;17.83;77.27;101929.69;5011738;28;20068;-66
2023/08/23 06:37:44;;;;;;;10.68;8.05;;;;;;;17.90;77.93;101918.66;5016656;28;20352;-66
2023/08/23 06:40:11;;;;;;;10.20;7.78;;;;;;;18.02;78.36;101918.88;4995681;28;20045;-66
2023/08/23 06:42:37;;;;;;;14.63;8.10;;;;;;;18.10;78.24;101922.00;5011047;28;20069;-66
2023/08/23 06:45:02;;;;;;;11.27;8.30;;;;;;;18.22;78.31;101919.59;5012233;28;20042;-66
2023/08/23 06:47:28;;;;;;;11.80;7.90;;;;;;;18.36;78.81;101925.03;5015488;28;20042;-66
2023/08/23 06:49:53;;;;;;;8.73;6.00;;;;;;;18.49;78.98;101918.06;5009656;28;20639;-66
2023/08/23 06:52:19;;;;;;;10.75;8.05;;;;;;;18.54;77.47;101915.13;5019652;28;20148;-66
2023/08/23 06:54:44;;;;;;;13.38;8.60;;;;;;;18.60;77.61;101918.34;5013149;28;20037;-66
2023/08/23 06:57:09;;;;;;;13.15;8.38;;;;;;;18.66;76.97;101914.44;5009401;28;20037;-66
2023/08/23 06:59:34;;;;;;;9.52;7.25;;;;;;;18.79;76.54;101918.19;5010666;28;20047;-66
2023/08/23 07:02:00;;;;;;;11.65;7.68;;;;;;;18.90;75.67;101924.72;5010072;28;20041;-66
2023/08/23 07:04:25;;;;;;;10.73;8.45;;;;;;;18.93;75.13;101925.44;5011768;28;20115;-66
2023/08/23 07:06:50;;;;;;;10.88;8.10;;;;;;;19.10;75.94;101930.66;5007308;28;20100;-66
2023/08/23 07:09:16;;;;;;;13.43;8.25;;;;;;;19.24;75.01;101935.19;5003212;28;20131;-66
2023/08/23 07:11:41;;;;;;;11.00;7.70;;;;;;;19.20;75.06;101933.66;5004064;28;20033;-65
2023/08/23 07:14:08;;;;;;;10.45;8.23;;;;;;;19.27;75.65;101940.38;4986481;28;20025;-65
2023/08/23 07:16:34;;;;;;;15.18;8.55;;;;;;;19.44;75.53;101934.00;5006190;28;20045;-65
2023/08/23 07:19:01;;;;;;;11.25;8.05;;;;;;;19.42;74.35;101940.44;5009686;28;20506;-65
2023/08/23 07:21:26;;;;;;;14.48;9.13;;;;;;;19.55;74.57;101946.78;5011537;28;20533;-65
2023/08/23 07:23:52;;;;;;;14.15;8.50;;;;;;;19.70;74.58;101943.19;5012729;28;20108;-65
2023/08/23 07:26:17;;;;;;;10.50;8.57;;;;;;;19.83;74.06;101944.19;5004073;28;20042;-65
2023/08/23 07:28:42;;;;;;;11.27;7.88;;;;;;;19.94;74.56;101938.13;5009894;28;20033;-65
2023/08/23 07:31:08;;;;;;;12.00;8.23;;;;;;;20.05;73.58;101946.41;5008946;28;20497;-66
2023/08/23 07:33:33;;;;;;;10.23;7.88;;;;;;;20.26;74.51;101946.00;5010900;28;20036;-66
2023/08/23 07:36:00;;;;;;;8.88;7.68;;;;;;;20.40;73.21;101954.03;5009438;28;20021;-66
2023/08/23 07:38:26;;;;;;;10.93;8.23;;;;;;;20.42;72.91;101952.09;5015072;28;20026;-66
2023/08/23 07:40:59;;;;;;;11.57;8.63;;;;;;;20.56;72.57;101956.63;5009712;28;20030;-67
2023/08/23 07:43:25;;;;;;;10.57;7.47;;;;;;;20.74;72.16;101958.13;5010885;28;20021;-66
2023/08/23 07:45:54;;;;;;;11.90;8.13;;;;;;;20.95;68.81;101953.19;5009259;28;20021;-67
2023/08/23 07:48:21;;;;;;;12.80;7.13;;;;;;;21.22;66.08;101955.88;5014070;28;20068;-66
2023/08/23 07:50:57;;;;;;;9.77;7.57;;;;;;;21.53;65.78;101956.50;5012808;28;20104;-66
2023/08/23 07:53:23;;;;;;;11.93;8.73;;;;;;;21.74;62.25;101963.09;5020025;28;20030;-66
2023/08/23 07:55:49;;;;;;;9.93;7.75;;;;;;;22.05;62.72;101964.47;5010172;28;20030;-66
2023/08/23 07:58:15;;;;;;;10.90;7.25;;;;;;;22.22;61.99;101968.72;5024167;28;20037;-66
2023/08/23 08:00:40;;;;;;;9.68;7.38;;;;;;;22.72;60.52;101956.09;5008891;28;20040;-66
2023/08/23 08:03:06;;;;;;;9.65;7.00;;;;;;;23.10;57.91;101957.81;5015740;28;20036;-66
2023/08/23 08:05:33;;;;;;;11.43;7.60;;;;;;;23.38;57.87;101962.84;5011731;28;20111;-66
2023/08/23 08:07:58;;;;;;;7.63;6.68;;;;;;;23.59;57.83;101959.44;5011738;28;20903;-66
2023/08/23 08:10:23;;;;;;;12.30;7.50;;;;;;;23.85;57.15;101949.34;5009581;28;20030;-66
2023/08/23 08:12:49;;;;;;;12.40;7.82;;;;;;;24.06;56.92;101963.00;5018806;28;20037;-66
2023/08/23 08:15:15;;;;;;;12.55;7.03;;;;;;;24.39;55.52;101960.34;4998993;28;20029;-66
2023/08/23 08:17:40;;;;;;;8.93;6.18;;;;;;;24.75;54.44;101958.31;5019999;28;20017;-66
2023/08/23 08:20:08;;;;;;;9.77;6.18;;;;;;;25.15;53.75;101947.75;5010590;28;20057;-65
2023/08/23 08:22:33;;;;;;;11.70;6.18;;;;;;;25.54;51.99;101953.47;5022199;28;20469;-65
2023/08/23 08:24:59;;;;;;;10.18;6.30;;;;;;;25.54;50.86;101953.47;5017643;28;20037;-65
2023/08/23 08:27:24;;;;;;;7.95;5.55;;;;;;;25.88;50.30;101961.41;5012987;28;20076;-65
2023/08/23 08:29:49;;;;;;;7.88;5.88;;;;;;;26.22;48.99;101959.31;5019197;28;20453;-65
2023/08/23 08:32:15;;;;;;;9.43;5.70;;;;;;;26.56;48.05;101965.31;5010454;28;20025;-65
2023/08/23 08:34:40;;;;;;;9.70;5.70;;;;;;;26.81;47.32;101963.94;5014947;28;20536;-65
2023/08/23 08:37:06;;;;;;;7.57;5.10;;;;;;;27.04;47.33;101960.97;5013464;28;20040;-65
2023/08/23 08:39:31;;;;;;;8.40;5.68;;;;;;;27.09;46.87;101951.44;5016681;28;20812;-65
2023/08/23 08:41:58;;;;;;;6.97;4.88;;;;;;;27.13;45.43;101952.00;5004269;28;20042;-65
2023/08/23 08:44:24;;;;;;;9.02;4.72;;;;;;;26.87;45.38;101957.97;5017511;28;20074;-65
2023/08/23 08:46:49;;;;;;;6.03;4.88;;;;;;;26.98;44.92;101945.25;5018921;28;20454;-65
2023/08/23 08:49:15;;;;;;;7.25;4.25;;;;;;;27.36;46.08;101939.84;5012787;28;20444;-65
2023/08/23 08:51:43;;;;;;;7.88;4.32;;;;;;;27.75;43.78;101942.53;5012603;28;20064;-65
2023/08/23 08:54:10;;;;;;;3.92;2.97;;;;;;;28.16;40.92;101943.94;5015530;28;20037;-66
2023/08/23 08:56:36;;;;;;;5.13;3.25;;;;;;;28.80;39.00;101946.78;5006873;28;20040;-68
2023/08/23 08:59:01;;;;;;;5.32;3.92;;;;;;;29.35;39.25;101942.06;5015638;28;20548;-66
2023/08/23 09:01:31;;;;;;;5.20;3.58;;;;;;;30.01;38.73;101950.72;5021891;28;20030;-66
2023/08/23 09:03:57;;;;;;;6.20;3.30;;;;;;;30.39;37.63;101955.72;5019619;28;20087;-66
2023/08/23 09:06:23;;;;;;;5.78;3.42;;;;;;;30.02;37.19;101955.16;5013844;28;20042;-66
2023/08/23 09:08:48;;;;;;;6.32;3.25;;;;;;;30.18;36.04;101956.16;5027599;28;20029;-65
2023/08/23 09:11:14;;;;;;;3.60;3.17;;;;;;;30.35;36.53;101950.75;5019522;28;20072;-66
2023/08/23 09:13:39;;;;;;;4.67;3.57;;;;;;;31.10;37.43;101951.66;5023133;28;20044;-66
2023/08/23 09:16:05;;;;;;;5.80;3.30;;;;;;;31.30;35.41;101945.91;5010141;28;20288;-66
2023/08/23 09:18:32;;;;;;;7.10;3.58;;;;;;;31.99;35.83;101939.00;5010836;28;20108;-67
2023/08/23 09:20:57;;;;;;;5.15;3.78;;;;;;;31.92;34.70;101952.50;5010004;28;20516;-66
2023/08/23 09:23:22;;;;;;;6.55;3.47;;;;;;;31.96;33.91;101945.66;5006215;28;20034;-66
2023/08/23 09:25:48;;;;;;;8.63;3.67;;;;;;;32.34;33.05;101940.38;5004245;28;20240;-67
2023/08/23 09:28:14;;;;;;;4.10;3.20;;;;;;;32.90;32.45;101949.38;5013468;28;20318;-65
2023/08/23 09:30:39;;;;;;;5.47;3.80;;;;;;;33.00;32.18;101936.28;5019764;28;20029;-67
2023/08/23 09:33:04;;;;;;;7.07;3.65;;;;;;;33.52;31.51;101945.63;5018377;28;20049;-68
2023/08/23 09:35:30;;;;;;;8.30;3.97;;;;;;;33.38;30.84;101944.53;5007100;28;20026;-67
2023/08/23 09:37:55;;;;;;;5.35;3.78;;;;;;;33.24;32.01;101956.31;5006229;28;20022;-67
2023/08/23 09:40:22;;;;;;;6.53;4.60;;;;;;;33.42;32.14;101948.59;5011163;28;20121;-68
2023/08/23 09:42:49;;;;;;;5.88;4.22;;;;;;;33.26;31.55;101957.00;5013070;28;20105;-68
2023/08/23 09:45:20;;;;;;;6.13;3.95;;;;;;;33.06;31.52;101956.59;5009960;28;20029;-68
2023/08/23 09:47:50;;;;;;;7.22;3.92;;;;;;;33.32;31.78;101945.28;5009724;28;20040;-67
2023/08/23 09:50:17;;;;;;;6.22;4.65;;;;;;;32.92;31.39;101943.69;5014860;28;20026;-69
2023/08/23 09:52:44;;;;;;;7.65;5.07;;;;;;;32.09;33.47;101947.84;5008798;28;20101;-69
2023/08/23 09:55:14;;;;;;;7.05;4.68;;;;;;;32.21;35.51;101940.94;5013912;28;20433;-69
2023/08/23 09:57:40;;;;;;;6.25;3.92;;;;;;;32.63;33.83;101944.38;5012156;28;20021;-70
2023/08/23 10:00:08;;;;;;;7.40;4.20;;;;;;;32.53;34.01;101949.22;5023560;28;20076;-67
2023/08/23 10:02:33;;;;;;;6.88;4.55;;;;;;;32.99;32.69;101944.69;5013443;28;20034;-68
2023/08/23 10:05:03;;;;;;;7.55;4.50;;;;;;;32.09;35.18;101955.22;5015642;28;20402;-68
2023/08/23 10:07:29;;;;;;;7.82;4.35;;;;;;;32.08;34.46;101948.00;5008320;28;20037;-68
2023/08/23 10:09:55;;;;;;;7.13;4.40;;;;;;;31.29;34.94;101939.59;5011393;28;20068;-69
2023/08/23 10:12:20;;;;;;;8.50;3.42;;;;;;;31.94;36.62;101944.13;5013274;28;20053;-70
2023/08/23 10:14:49;;;;;;;7.10;4.40;;;;;;;31.60;34.94;101958.00;5007535;28;20037;-69
2023/08/23 10:17:18;;;;;;;8.70;4.40;;;;;;;31.88;34.58;101945.66;5007120;28;20034;-69
2023/08/23 10:19:49;;;;;;;8.18;3.80;;;;;;;32.14;35.60;101936.38;5009113;28;20049;-69
2023/08/23 10:22:15;;;;;;;;;;;;;;;32.88;35.76;101943.19;5006800;28;20172;-69
2023/08/23 10:24:40;;;;;;;6.83;3.60;;;;;;;33.13;33.71;101948.53;5007756;28;20016;-69
2023/08/23 10:27:09;;;;;;;9.05;3.25;;;;;;;33.11;32.82;101947.84;5007717;28;20289;-69
2023/08/23 10:29:38;;;;;;;7.10;3.33;;;;;;;33.04;31.66;101942.25;5008783;28;20034;-69
2023/08/23 10:32:11;;;;;;;7.38;3.60;;;;;;;32.80;33.59;101943.25;5011466;28;20116;-70
2023/08/23 10:34:38;;;;;;;7.10;4.20;;;;;;;32.58;33.13;101944.06;5011326;28;20029;-69
2023/08/23 10:37:18;;;;;;;7.07;4.60;;;;;;;32.94;34.51;101941.66;5002881;28;20076;-69
2023/08/23 10:39:49;;;;;;;7.07;4.47;;;;;;;33.08;32.35;101935.38;5008162;28;20026;-69
2023/08/23 10:42:16;;;;;;;5.07;3.83;;;;;;;32.86;31.91;101937.03;5009901;28;20028;-70
2023/08/23 10:44:57;;;;;;;6.63;2.78;;;;;;;32.89;32.12;101933.94;5008832;28;20030;-67
2023/08/23 10:47:23;;;;;;;5.90;3.90;;;;;;;33.28;32.41;101929.38;5010485;28;20025;-67
2023/08/23 10:49:49;;;;;;;3.75;2.80;;;;;;;33.25;29.49;101928.72;5011061;28;20032;-70
2023/08/23 10:52:15;;;;;;;4.20;2.83;;;;;;;33.62;30.94;101924.31;5008849;28;20038;-70
2023/08/23 10:54:40;;;;;;;6.68;4.38;;;;;;;33.63;29.82;101928.75;5004318;28;20026;-69
2023/08/23 10:57:05;;;;;;;7.45;3.85;;;;;;;33.28;31.62;101924.75;5005204;28;20410;-69
2023/08/23 10:59:31;;;;;;;5.55;3.83;;;;;;;33.34;30.46;101926.75;5006369;28;20036;-70
2023/08/23 11:01:56;;;;;;;4.15;3.10;;;;;;;33.36;30.77;101923.84;5007484;28;20022;-69
2023/08/23 11:04:22;;;;;;;5.07;3.17;;;;;;;33.26;30.63;101918.63;5014682;28;20029;-69
2023/08/23 11:06:48;;;;;;;4.63;2.67;;;;;;;33.18;31.88;101915.94;5007980;28;20053;-69
2023/08/23 11:09:15;;;;;;;5.47;3.28;;;;;;;33.19;31.85;101906.66;5008083;28;20022;-69
2023/08/23 11:11:41;;;;;;;5.65;2.97;;;;;;;32.88;31.24;101907.59;5019723;28;20057;-69
2023/08/23 11:14:07;;;;;;;7.15;2.60;;;;;;;32.85;30.71;101904.34;5015001;28;20332;-69
2023/08/23 11:16:33;;;;;;;5.45;3.28;;;;;;;33.03;31.32;101895.88;5008800;28;20596;-70
2023/08/23 11:19:03;;;;;;;5.28;3.30;;;;;;;33.33;31.42;101897.63;5022053;28;20033;-70